createdAt,value
2019-03-28T00:00:10.905Z,100159.95
2019-03-28T00:02:40.324Z,100154.70
2019-03-28T00:05:10.282Z,100160.18
2019-03-28T00:07:39.691Z,100157.85
2019-03-28T00:10:10.020Z,100156.31
2019-03-28T00:12:40.119Z,100153.41
2019-03-28T00:15:09.776Z,100150.69
2019-03-28T00:17:39.317Z,100159.30
2019-03-28T00:20:09.173Z,100152.73
2019-03-28T00:22:42.891Z,100154.03
2019-03-28T00:25:23.190Z,100155.59
2019-03-28T00:27:52.602Z,100156.45
2019-03-28T00:30:22.355Z,100157.98
2019-03-28T00:32:52.332Z,100155.59
2019-03-28T00:35:21.759Z,100155.55
2019-03-28T00:37:51.247Z,100157.28
2019-03-28T00:40:20.713Z,100155.08
2019-03-28T00:42:50.141Z,100148.65
2019-03-28T00:45:19.547Z,100150.65
2019-03-28T00:47:48.971Z,100151.27
2019-03-28T00:50:18.443Z,100159.11
2019-03-28T00:52:47.876Z,100147.35
2019-03-28T00:55:17.279Z,100151.72
2019-03-28T00:57:46.702Z,100158.22
2019-03-28T01:00:17.155Z,100156.77
2019-03-28T01:02:46.598Z,100153.27
2019-03-28T01:05:17.145Z,100149.69
2019-03-28T01:07:47.224Z,100150.17
2019-03-28T01:10:16.752Z,100152.37
2019-03-28T01:12:46.179Z,100153.88
2019-03-28T01:15:15.580Z,100157.73
2019-03-28T01:17:45.013Z,100145.46
2019-03-28T01:20:14.625Z,100147.38
2019-03-28T01:22:44.063Z,100144.98
2019-03-28T01:25:13.486Z,100148.89
2019-03-28T01:27:42.909Z,100152.81
2019-03-28T01:30:12.653Z,100152.64
2019-03-28T01:32:42.086Z,100152.16
2019-03-28T01:35:11.497Z,100150.09
2019-03-28T01:37:40.922Z,100146.93
2019-03-28T01:40:10.564Z,100147.75
2019-03-28T01:42:40.008Z,100139.81
2019-03-28T01:45:09.756Z,100145.14
2019-03-28T01:47:39.306Z,100141.70
2019-03-28T01:50:09.309Z,100139.47
2019-03-28T01:52:38.734Z,100133.28
2019-03-28T01:55:08.677Z,100131.36
2019-03-28T01:57:38.247Z,100130.36
2019-03-28T02:00:10.245Z,100125.37
2019-03-28T02:02:39.665Z,100121.13
2019-03-28T02:05:09.179Z,100123.98
2019-03-28T02:07:38.604Z,100117.11
2019-03-28T02:10:08.444Z,100120.03
2019-03-28T02:12:37.901Z,100124.17
2019-03-28T02:15:09.350Z,100120.78
2019-03-28T02:17:38.775Z,100116.52
2019-03-28T02:20:10.291Z,100120.55
2019-03-28T02:22:39.929Z,100120.17
2019-03-28T02:25:09.591Z,100121.84
2019-03-28T02:27:39.030Z,100121.26
2019-03-28T02:30:09.187Z,100114.63
2019-03-28T02:32:38.653Z,100121.38
2019-03-28T02:35:08.209Z,100121.38
2019-03-28T02:37:37.631Z,100121.45
2019-03-28T02:40:07.830Z,100127.02
2019-03-28T02:42:37.222Z,100121.19
2019-03-28T02:45:08.261Z,100116.41
2019-03-28T02:47:37.765Z,100119.44
2019-03-28T02:50:07.515Z,100119.13
2019-03-28T02:52:36.931Z,100117.39
2019-03-28T02:55:07.581Z,100117.25
2019-03-28T02:57:41.793Z,100118.04
2019-03-28T03:00:08.560Z,100108.91
2019-03-28T03:02:37.971Z,100112.03
2019-03-28T03:05:08.453Z,100117.63
2019-03-28T03:07:37.843Z,100118.45
2019-03-28T03:10:08.108Z,100120.55
2019-03-28T03:12:37.513Z,100126.85
2019-03-28T03:15:07.582Z,100122.80
2019-03-28T03:17:36.992Z,100125.37
2019-03-28T03:20:07.460Z,100122.34
2019-03-28T03:22:36.910Z,100125.78
2019-03-28T03:25:08.648Z,100128.69
2019-03-28T03:27:38.311Z,100125.45
2019-03-28T03:30:09.484Z,100123.55
2019-03-28T03:32:38.959Z,100129.52
2019-03-28T03:35:08.716Z,100129.66
2019-03-28T03:37:38.109Z,100136.71
2019-03-28T03:40:08.785Z,100137.19
2019-03-28T03:42:38.180Z,100130.25
2019-03-28T03:45:09.343Z,100134.91
2019-03-28T03:47:39.039Z,100133.05
2019-03-28T03:50:09.386Z,100129.45
2019-03-28T03:52:38.894Z,100128.73
2019-03-28T03:55:08.665Z,100136.80
2019-03-28T03:57:38.067Z,100136.60
2019-03-28T04:00:09.462Z,100144.02
2019-03-28T04:02:38.843Z,100143.45
2019-03-28T04:05:08.709Z,100145.05
2019-03-28T04:07:38.123Z,100143.74
2019-03-28T04:10:07.889Z,100149.97
2019-03-28T04:12:37.290Z,100145.65
2019-03-28T04:15:06.790Z,100147.44
2019-03-28T04:17:36.215Z,100145.24
2019-03-28T04:20:07.173Z,100152.73
2019-03-28T04:22:37.148Z,100154.56
2019-03-28T04:25:07.188Z,100150.66
2019-03-28T04:27:36.582Z,100150.98
2019-03-28T04:30:08.124Z,100149.52
2019-03-28T04:32:37.580Z,100156.36
2019-03-28T04:35:07.264Z,100156.13
2019-03-28T04:37:36.672Z,100159.50
2019-03-28T04:40:08.781Z,100156.70
2019-03-28T04:42:38.313Z,100156.13
2019-03-28T04:45:07.947Z,100160.44
2019-03-28T04:47:37.320Z,100157.34
2019-03-28T04:50:07.491Z,100158.20
2019-03-28T04:52:36.920Z,100162.92
2019-03-28T04:55:07.995Z,100159.50
2019-03-28T04:57:37.473Z,100163.01
2019-03-28T05:00:08.143Z,100169.23
2019-03-28T05:02:37.541Z,100169.05
2019-03-28T05:05:07.700Z,100162.08
2019-03-28T05:07:37.106Z,100164.47
2019-03-28T05:10:08.675Z,100168.63
2019-03-28T05:12:38.079Z,100167.77
2019-03-28T05:15:09.061Z,100167.20
2019-03-28T05:17:38.535Z,100166.26
2019-03-28T05:20:13.037Z,100165.85
2019-03-28T05:22:41.385Z,100177.57
2019-03-28T05:25:11.060Z,100168.05
2019-03-28T05:27:40.476Z,100173.52
2019-03-28T05:30:10.939Z,100168.23
2019-03-28T05:32:40.350Z,100174.19
2019-03-28T05:35:10.214Z,100184.12
2019-03-28T05:37:39.682Z,100186.48
2019-03-28T05:40:09.605Z,100184.05
2019-03-28T05:42:39.002Z,100181.77
2019-03-28T05:45:08.679Z,100187.10
2019-03-28T05:47:38.096Z,100189.10
2019-03-28T05:50:07.759Z,100191.91
2019-03-28T05:52:37.160Z,100195.66
2019-03-28T05:55:07.362Z,100203.36
2019-03-28T05:57:36.850Z,100209.52
2019-03-28T06:00:09.419Z,100212.41
2019-03-28T06:02:38.880Z,100217.84
2019-03-28T06:05:08.746Z,100215.09
2019-03-28T06:07:38.150Z,100222.47
2019-03-28T06:10:09.123Z,100212.05
2019-03-28T06:12:38.535Z,100213.57
2019-03-28T06:15:08.836Z,100208.61
2019-03-28T06:17:38.258Z,100203.86
2019-03-28T06:20:11.447Z,100209.34
2019-03-28T06:22:40.870Z,100211.06
2019-03-28T06:25:10.373Z,100215.84
2019-03-28T06:27:39.803Z,100207.83
2019-03-28T06:30:10.149Z,100212.02
2019-03-28T06:32:43.307Z,100217.55
2019-03-28T06:35:11.008Z,100214.19
2019-03-28T06:37:40.438Z,100210.88
2019-03-28T06:40:10.100Z,100206.91
2019-03-28T06:42:39.525Z,100206.63
2019-03-28T06:45:09.285Z,100212.97
2019-03-28T06:47:38.793Z,100211.11
2019-03-28T06:50:10.805Z,100204.81
2019-03-28T06:52:40.310Z,100204.45
2019-03-28T06:55:09.973Z,100206.37
2019-03-28T06:57:39.415Z,100207.69
2019-03-28T07:00:10.082Z,100199.41
2019-03-28T07:02:40.048Z,100194.53
2019-03-28T07:05:10.876Z,100189.73
2019-03-28T07:07:40.867Z,100191.61
2019-03-28T07:10:11.222Z,100193.28
2019-03-28T07:12:42.085Z,100193.59
2019-03-28T07:15:14.065Z,100185.77
2019-03-28T07:17:43.739Z,100190.08
2019-03-28T07:20:13.715Z,100190.06
2019-03-28T07:22:45.853Z,100186.63
2019-03-28T07:25:14.401Z,100186.08
2019-03-28T07:27:43.830Z,100187.74
2019-03-28T07:30:15.383Z,100165.89
2019-03-28T07:32:44.878Z,100188.05
2019-03-28T07:35:14.447Z,100187.34
2019-03-28T07:37:43.864Z,100182.94
2019-03-28T07:40:14.243Z,100181.77
2019-03-28T07:42:43.691Z,100179.82
2019-03-28T07:45:13.506Z,100178.69
2019-03-28T07:47:42.947Z,100177.40
2019-03-28T07:50:13.401Z,100187.38
2019-03-28T07:52:42.849Z,100185.52
2019-03-28T07:55:12.609Z,100173.19
2019-03-28T07:57:42.075Z,100172.16
2019-03-28T08:00:12.643Z,100173.66
2019-03-28T08:02:42.157Z,100171.48
2019-03-28T08:05:13.333Z,100176.14
2019-03-28T08:07:47.117Z,100169.92
2019-03-28T08:10:17.288Z,100165.38
2019-03-28T08:12:46.717Z,100168.23
2019-03-28T08:15:16.570Z,100170.22
2019-03-28T08:17:46.004Z,100168.95
2019-03-28T08:20:15.991Z,100161.14
2019-03-28T08:22:45.455Z,100165.33
2019-03-28T08:25:15.111Z,100165.20
2019-03-28T08:27:44.565Z,100165.00
2019-03-28T08:30:41.303Z,100164.48
2019-03-28T08:33:14.092Z,100168.48
2019-03-28T08:35:43.574Z,100164.66
2019-03-28T08:38:13.269Z,100169.30
2019-03-28T08:40:43.919Z,100165.08
2019-03-28T08:43:13.482Z,100166.92
2019-03-28T08:45:42.901Z,100174.16
2019-03-28T08:48:12.347Z,100168.08
2019-03-28T08:50:41.756Z,100163.95
2019-03-28T08:53:11.206Z,100167.05
2019-03-28T08:55:40.610Z,100168.94
2019-03-28T08:58:10.117Z,100160.09
2019-03-28T09:00:51.480Z,100155.27
2019-03-28T09:03:10.766Z,100161.88
2019-03-28T09:05:40.180Z,100153.30
2019-03-28T09:08:09.624Z,100160.92
2019-03-28T09:10:39.159Z,100164.89
2019-03-28T09:13:08.598Z,100170.94
2019-03-28T09:15:43.982Z,100164.50
2019-03-28T09:18:17.359Z,100163.94
2019-03-28T09:20:46.789Z,100154.49
2019-03-28T09:23:16.236Z,100157.38
2019-03-28T09:25:45.912Z,100150.24
2019-03-28T09:28:15.370Z,100144.19
2019-03-28T09:30:49.410Z,100143.22
2019-03-28T09:33:16.399Z,100156.25
2019-03-28T09:35:46.006Z,100145.19
2019-03-28T09:38:15.617Z,100135.78
2019-03-28T09:40:45.203Z,100127.92
2019-03-28T09:43:14.628Z,100135.50
2019-03-28T09:45:44.094Z,100135.00
2019-03-28T09:48:13.528Z,100131.52
2019-03-28T09:50:42.943Z,100124.34
2019-03-28T09:53:12.455Z,100128.39
2019-03-28T09:55:41.891Z,100123.50
2019-03-28T09:58:11.311Z,100124.80
2019-03-28T10:00:40.867Z,100126.88
2019-03-28T10:03:10.450Z,100123.48
2019-03-28T10:05:39.861Z,100130.20
2019-03-28T10:08:09.293Z,100125.47
2019-03-28T10:10:38.695Z,100124.00
2019-03-28T10:13:08.166Z,100117.80
2019-03-28T10:15:37.666Z,100114.95
2019-03-28T10:18:07.074Z,100114.83
2019-03-28T10:20:36.563Z,100114.03
2019-03-28T10:23:06.037Z,100113.52
2019-03-28T10:25:35.459Z,100108.80
2019-03-28T10:28:05.041Z,100107.38
2019-03-28T10:30:39.780Z,100103.27
2019-03-28T10:33:16.223Z,100112.31
2019-03-28T10:35:46.279Z,100107.05
2019-03-28T10:38:15.787Z,100109.00
2019-03-28T10:40:45.206Z,100109.05
2019-03-28T10:43:14.620Z,100109.66
2019-03-28T10:45:44.120Z,100107.42
2019-03-28T10:48:13.541Z,100110.16
2019-03-28T10:50:45.838Z,100106.78
2019-03-28T10:53:14.122Z,100111.92
2019-03-28T10:55:43.548Z,100107.84
2019-03-28T10:58:18.575Z,100113.48
2019-03-28T11:00:44.075Z,100111.18
2019-03-28T11:03:13.483Z,100112.59
2019-03-28T11:05:42.915Z,100113.89
2019-03-28T11:08:12.310Z,100104.00
2019-03-28T11:10:41.724Z,100110.79
2019-03-28T11:13:11.133Z,100108.55
2019-03-28T11:15:40.560Z,100113.02
2019-03-28T11:18:09.972Z,100094.11
2019-03-28T11:20:40.138Z,100100.80
2019-03-28T11:23:09.755Z,100092.16
2019-03-28T11:25:39.348Z,100092.67
2019-03-28T11:28:08.787Z,100102.83
2019-03-28T11:30:39.534Z,100105.85
2019-03-28T11:33:09.015Z,100104.53
2019-03-28T11:35:38.473Z,100100.22
2019-03-28T11:38:09.579Z,100091.69
2019-03-28T11:40:42.473Z,100096.84
2019-03-28T11:43:10.187Z,100095.41
2019-03-28T11:45:39.607Z,100093.92
2019-03-28T11:48:09.007Z,100087.66
2019-03-28T11:50:38.436Z,100101.42
2019-03-28T11:53:07.832Z,100093.35
2019-03-28T11:55:37.266Z,100092.36
2019-03-28T11:58:06.689Z,100085.78
2019-03-28T12:00:36.209Z,100087.46
2019-03-28T12:03:05.626Z,100085.00
2019-03-28T12:05:35.049Z,100077.05
2019-03-28T12:08:04.520Z,100079.08
2019-03-28T12:10:34.035Z,100080.81
2019-03-28T12:13:03.709Z,100079.58
2019-03-28T12:15:33.133Z,100072.88
2019-03-28T12:18:02.542Z,100068.81
2019-03-28T12:20:32.207Z,100068.61
2019-03-28T12:23:01.571Z,100059.62
2019-03-28T12:25:31.002Z,100057.61
2019-03-28T12:28:00.657Z,100063.00
2019-03-28T12:30:30.177Z,100062.95
2019-03-28T12:32:59.579Z,100054.52
2019-03-28T12:35:28.999Z,100056.47
2019-03-28T12:37:58.415Z,100063.22
2019-03-28T12:40:27.842Z,100053.74
2019-03-28T12:42:57.265Z,100053.95
2019-03-28T12:45:26.798Z,100047.38
2019-03-28T12:47:56.219Z,100048.47
2019-03-28T12:50:25.640Z,100043.17
2019-03-28T12:52:58.167Z,100038.27
2019-03-28T12:55:26.252Z,100043.78
2019-03-28T12:57:56.692Z,100052.02
2019-03-28T13:00:36.286Z,100054.02
2019-03-28T13:03:05.689Z,100046.27
2019-03-28T13:05:35.570Z,100040.29
2019-03-28T13:08:05.148Z,100034.00
2019-03-28T13:10:34.807Z,100034.38
2019-03-28T13:13:04.318Z,100026.63
2019-03-28T13:15:33.796Z,100023.78
2019-03-28T13:18:03.195Z,100023.16
2019-03-28T13:20:32.632Z,100017.66
2019-03-28T13:23:02.065Z,100018.21
2019-03-28T13:25:31.465Z,100000.10
2019-03-28T13:28:00.863Z,100009.28
2019-03-28T13:30:30.360Z,100001.52
2019-03-28T13:32:59.770Z,100001.76
2019-03-28T13:35:29.192Z,99994.52
2019-03-28T13:37:58.598Z,99998.41
2019-03-28T13:40:28.011Z,99997.03
2019-03-28T13:42:57.416Z,99989.27
2019-03-28T13:45:26.867Z,99995.92
2019-03-28T13:47:56.262Z,99992.22
2019-03-28T13:50:25.772Z,100000.16
2019-03-28T13:52:55.193Z,99995.27
2019-03-28T13:55:24.627Z,99993.66
2019-03-28T13:57:54.023Z,99989.16
2019-03-28T14:00:31.321Z,99991.14
2019-03-28T14:03:00.761Z,99989.33
2019-03-28T14:05:30.172Z,99984.77
2019-03-28T14:07:59.569Z,99989.52
2019-03-28T14:10:29.079Z,99986.50
2019-03-28T14:12:58.481Z,99984.41
2019-03-28T14:15:27.985Z,99987.92
2019-03-28T14:17:57.387Z,99983.19
2019-03-28T14:20:26.828Z,99982.38
2019-03-28T14:22:56.302Z,99975.23
2019-03-28T14:25:25.803Z,99973.22
2019-03-28T14:27:55.281Z,99970.37
2019-03-28T14:30:24.816Z,99977.73
2019-03-28T14:32:55.414Z,99976.48
2019-03-28T14:35:25.459Z,99968.55
2019-03-28T14:37:54.865Z,99964.13
2019-03-28T14:40:24.471Z,99954.48
2019-03-28T14:42:53.875Z,99958.06
2019-03-28T14:45:23.283Z,99961.14
2019-03-28T14:47:52.716Z,99967.38
2019-03-28T14:50:31.249Z,99961.97
2019-03-28T14:53:01.065Z,99954.56
2019-03-28T14:55:31.238Z,99956.61
2019-03-28T14:58:01.272Z,99964.73
2019-03-28T15:00:51.342Z,99956.17
2019-03-28T15:03:26.070Z,99953.17
2019-03-28T15:05:51.982Z,99954.95
2019-03-28T15:08:21.398Z,99953.02
2019-03-28T15:10:50.808Z,99958.16
2019-03-28T15:13:20.204Z,99947.48
2019-03-28T15:15:49.699Z,99950.08
2019-03-28T15:18:19.155Z,99958.33
2019-03-28T15:20:48.561Z,99958.26
2019-03-28T15:23:17.963Z,99956.54
2019-03-28T15:25:47.379Z,99953.70
2019-03-28T15:28:16.779Z,99948.00
2019-03-28T15:30:46.611Z,99946.66
2019-03-28T15:33:16.012Z,99949.02
2019-03-28T15:35:45.430Z,99954.67
2019-03-28T15:38:14.890Z,99946.94
2019-03-28T15:40:44.564Z,99952.56
2019-03-28T15:43:13.928Z,99952.83
2019-03-28T15:45:43.436Z,99953.52
2019-03-28T15:48:12.900Z,99943.23
2019-03-28T15:50:42.308Z,99944.73
2019-03-28T15:53:11.696Z,99945.88
2019-03-28T15:55:41.120Z,99948.23
2019-03-28T15:58:22.606Z,99947.11
2019-03-28T16:00:41.899Z,99946.66
2019-03-28T16:03:11.400Z,99943.28
2019-03-28T16:05:40.814Z,99947.98
2019-03-28T16:08:10.214Z,99946.96
2019-03-28T16:10:39.634Z,99949.78
2019-03-28T16:13:09.030Z,99954.34
2019-03-28T16:15:38.431Z,99952.17
2019-03-28T16:18:07.839Z,99950.03
2019-03-28T16:20:37.245Z,99951.77
2019-03-28T16:23:06.677Z,99954.54
2019-03-28T16:25:36.121Z,99953.27
2019-03-28T16:28:05.584Z,99952.33
2019-03-28T16:30:36.931Z,99946.75
2019-03-28T16:33:06.659Z,99938.30
2019-03-28T16:35:36.076Z,99935.92
2019-03-28T16:38:05.545Z,99945.79
2019-03-28T16:40:34.951Z,99947.58
2019-03-28T16:43:04.385Z,99942.33
2019-03-28T16:45:33.823Z,99944.56
2019-03-28T16:48:03.207Z,99956.22
2019-03-28T16:50:32.631Z,99953.20
2019-03-28T16:53:02.030Z,99954.28
2019-03-28T16:55:31.437Z,99953.95
2019-03-28T16:58:00.898Z,99954.03
2019-03-28T17:00:35.276Z,99960.70
2019-03-28T17:03:05.704Z,99965.61
2019-03-28T17:05:35.403Z,99957.23
2019-03-28T17:08:05.161Z,99955.11
2019-03-28T17:10:47.868Z,99957.36
2019-03-28T17:13:17.343Z,99957.83
2019-03-28T17:15:46.966Z,99964.47
2019-03-28T17:18:18.596Z,99960.16
2019-03-28T17:20:47.760Z,99961.52
2019-03-28T17:23:17.337Z,99963.78
2019-03-28T17:25:47.172Z,99972.25
2019-03-28T17:28:16.715Z,99963.04
2019-03-28T17:30:46.274Z,99967.50
2019-03-28T17:33:17.817Z,99963.14
2019-03-28T17:35:47.130Z,99970.71
2019-03-28T17:38:17.055Z,99974.75
2019-03-28T17:40:46.532Z,99971.67
2019-03-28T17:43:16.127Z,99973.02
2019-03-28T17:45:45.595Z,99974.39
2019-03-28T17:48:15.000Z,99975.73
2019-03-28T17:50:44.486Z,99978.42
2019-03-28T17:53:13.947Z,99977.99
2019-03-28T17:55:43.620Z,99982.88
2019-03-28T17:58:13.022Z,99985.97
2019-03-28T18:00:44.067Z,99983.36
2019-03-28T18:03:13.530Z,99990.39
2019-03-28T18:05:43.037Z,99989.50
2019-03-28T18:08:12.443Z,99985.09
2019-03-28T18:10:41.840Z,99980.25
2019-03-28T18:13:11.260Z,99982.47
2019-03-28T18:15:41.389Z,99982.05
2019-03-28T18:18:12.001Z,99989.98
2019-03-28T18:20:41.606Z,99989.11
2019-03-28T18:23:11.030Z,99993.95
2019-03-28T18:25:40.495Z,100002.77
2019-03-28T18:28:09.990Z,100001.42
2019-03-28T18:30:39.343Z,100004.50
2019-03-28T18:33:08.801Z,100006.73
2019-03-28T18:35:38.209Z,100008.05
2019-03-28T18:38:07.671Z,100014.64
2019-03-28T18:40:37.103Z,100018.17
2019-03-28T18:43:06.521Z,100014.19
2019-03-28T18:45:35.933Z,100015.06
2019-03-28T18:48:08.699Z,100024.75
2019-03-28T18:50:36.569Z,100023.41
2019-03-28T18:53:05.996Z,100022.96
2019-03-28T18:55:35.481Z,100022.05
2019-03-28T18:58:05.645Z,100030.44
2019-03-28T19:00:35.294Z,100030.84
2019-03-28T19:03:04.828Z,100033.92
2019-03-28T19:05:34.239Z,100034.75
2019-03-28T19:08:03.676Z,100033.36
2019-03-28T19:10:33.092Z,100033.28
2019-03-28T19:13:04.762Z,100035.92
2019-03-28T19:15:33.641Z,100029.24
2019-03-28T19:18:03.189Z,100038.92
2019-03-28T19:20:33.358Z,100041.95
2019-03-28T19:23:02.922Z,100043.69
2019-03-28T19:25:35.110Z,100045.44
2019-03-28T19:28:07.491Z,100050.20
2019-03-28T19:30:35.977Z,100044.91
2019-03-28T19:33:06.955Z,100043.58
2019-03-28T19:35:38.223Z,100041.36
2019-03-28T19:38:09.353Z,100037.84
2019-03-28T19:40:39.026Z,100043.98
2019-03-28T19:43:19.785Z,100042.70
2019-03-28T19:45:40.008Z,100049.78
2019-03-28T19:48:09.992Z,100047.50
2019-03-28T19:50:41.807Z,100046.17
2019-03-28T19:53:12.108Z,100042.58
2019-03-28T19:55:41.542Z,100042.58
2019-03-28T19:58:13.523Z,100041.24
2019-03-28T20:00:42.421Z,100046.84
2019-03-28T20:03:11.856Z,100043.75
2019-03-28T20:05:47.389Z,100042.97
2019-03-28T20:08:16.097Z,100045.52
2019-03-28T20:10:44.877Z,100032.89
2019-03-28T20:13:14.529Z,100041.17
2019-03-28T20:15:44.098Z,100037.19
2019-03-28T20:18:13.696Z,100035.38
2019-03-28T20:20:43.194Z,100044.19
2019-03-28T20:23:12.616Z,100037.46
2019-03-28T20:25:42.922Z,100029.98
2019-03-28T20:28:14.430Z,100032.19
2019-03-28T20:30:43.544Z,100030.91
2019-03-28T20:33:13.057Z,100034.80
2019-03-28T20:35:42.457Z,100028.27
2019-03-28T20:38:11.911Z,100035.28
2019-03-28T20:40:43.367Z,100034.41
2019-03-28T20:43:12.521Z,100027.83
2019-03-28T20:45:41.965Z,100033.45
2019-03-28T20:48:11.392Z,100032.06
2019-03-28T20:50:40.806Z,100028.20
2019-03-28T20:53:10.308Z,100029.96
2019-03-28T20:55:39.708Z,100027.78
2019-03-28T20:58:09.143Z,100029.91
2019-03-28T21:00:46.303Z,100029.86
2019-03-28T21:03:16.662Z,100028.56
2019-03-28T21:05:46.342Z,100027.14
2019-03-28T21:08:15.758Z,100031.95
2019-03-28T21:10:45.171Z,100035.38
2019-03-28T21:13:14.809Z,100037.56
2019-03-28T21:15:44.287Z,100036.21
2019-03-28T21:18:13.722Z,100042.38
2019-03-28T21:20:43.195Z,100030.10
2019-03-28T21:23:12.964Z,100031.33
2019-03-28T21:25:42.409Z,100032.23
2019-03-28T21:28:13.801Z,100029.88
2019-03-28T21:30:47.578Z,100031.66
2019-03-28T21:33:15.134Z,100032.95
2019-03-28T21:35:44.887Z,100034.23
2019-03-28T21:38:14.321Z,100031.60
2019-03-28T21:40:43.837Z,100032.11
2019-03-28T21:43:13.270Z,100028.10
2019-03-28T21:45:42.690Z,100027.09
2019-03-28T21:48:12.127Z,100022.22
2019-03-28T21:50:41.535Z,100025.22
2019-03-28T21:53:11.043Z,100019.40
2019-03-28T21:55:53.967Z,100022.46
2019-03-28T21:58:11.567Z,100013.67
2019-03-28T22:00:41.075Z,100009.62
2019-03-28T22:03:10.517Z,100006.13
2019-03-28T22:05:39.912Z,100005.23
2019-03-28T22:08:09.329Z,99997.33
2019-03-28T22:10:38.731Z,100009.13
2019-03-28T22:13:08.224Z,100005.73
2019-03-28T22:15:37.629Z,99999.91
2019-03-28T22:18:07.763Z,100005.66
2019-03-28T22:20:37.198Z,99996.84
2019-03-28T22:23:06.648Z,100001.09
2019-03-28T22:25:36.034Z,99999.59
2019-03-28T22:28:05.622Z,99998.14
2019-03-28T22:30:35.021Z,99998.88
2019-03-28T22:33:04.424Z,100002.72
2019-03-28T22:35:33.830Z,99990.38
2019-03-28T22:38:03.409Z,99996.41
2019-03-28T22:40:32.800Z,99997.64
2019-03-28T22:43:02.225Z,99997.02
2019-03-28T22:45:31.664Z,99992.14
2019-03-28T22:48:10.499Z,99997.87
2019-03-28T22:50:32.227Z,99996.91
2019-03-28T22:53:01.631Z,99997.20
2019-03-28T22:55:31.103Z,99993.72
2019-03-28T22:58:00.523Z,100000.77
2019-03-28T23:00:44.774Z,99995.97
2019-03-28T23:03:16.490Z,99997.75
2019-03-28T23:05:45.950Z,99990.16
2019-03-28T23:08:15.381Z,99995.38
2019-03-28T23:10:44.849Z,99990.36
2019-03-28T23:13:14.261Z,99987.22
2019-03-28T23:15:43.727Z,99988.02
2019-03-28T23:18:13.614Z,99988.49
2019-03-28T23:20:43.271Z,99996.62
2019-03-28T23:23:12.674Z,99991.79
2019-03-28T23:25:42.083Z,99990.89
2019-03-28T23:28:11.512Z,99992.02
2019-03-28T23:30:40.916Z,99988.93
2019-03-28T23:33:10.485Z,99995.35
2019-03-28T23:35:40.871Z,99989.67
2019-03-28T23:38:10.379Z,99991.31
2019-03-28T23:40:39.821Z,99988.11
2019-03-28T23:43:09.832Z,99990.74
2019-03-28T23:45:39.303Z,99991.49
2019-03-28T23:48:08.896Z,99985.91
2019-03-28T23:50:38.299Z,99990.80
2019-03-28T23:53:08.778Z,99988.68
2019-03-28T23:55:38.488Z,99991.78
2019-03-28T23:58:07.905Z,99987.60
